Japan Airlines Virtual Airport Information Service

Da Nang International Airport

ICAO: VVDN Country: Vietnam
Latitude: 16.0439 Longitude: 108.199
Latest Arrival : JJA2903 (RKSI-VVDN) Latest Departure : VJC504 (VVDN-VVNB)


WX CaptureLIVE
Data provided by noaa.gov | Fetched at 13:22:23

METAR : VVDN 061300Z 13004KT 090V160 9999 FEW015 30/26 Q1008 NOSIG

TAF : VVDN 061100Z 0612/0712 20005KT 9999 FEW015 BECMG 0704/0705 10010KT TEMPO 0708/0712 TS FEW015 FEW017CB SCT060


Runway Data for VVDN
Data provided by openaviationdata.com

Runway ID Mag Var Hdg Length Elevation Surface ILS Freq ILS Id ILS Slope
17L -1 173° 10044 ft 33 ft Bituminous -- -- --
17R -1 173° 10044 ft 33 ft Concrete -- -- --
35L -1 353° 10044 ft 33 ft Concrete -- -- --
35R -1 353° 10044 ft 33 ft Bituminous 110.5 DAD 3

Da Nang International Airport, Vietnam
Use only for reference purposes



Not for navigational purposes.